sensor_id;sensor_type;location;lat;lon;timestamp;pressure;altitude;pressure_sealevel;temperature;humidity
7376;BME280;3728;42.266;24.944;2022-11-12T00:00:16;101007.63;;;11.95;100.00
7376;BME280;3728;42.266;24.944;2022-11-12T00:03:02;101009.31;;;11.76;100.00
7376;BME280;3728;42.266;24.944;2022-11-12T00:05:49;101004.31;;;11.80;100.00
7376;BME280;3728;42.266;24.944;2022-11-12T00:08:35;101007.50;;;11.72;100.00
7376;BME280;3728;42.266;24.944;2022-11-12T00:11:21;101004.38;;;11.59;100.00
7376;BME280;3728;42.266;24.944;2022-11-12T00:14:07;101010.25;;;11.41;100.00
7376;BME280;3728;42.266;24.944;2022-11-12T00:16:53;101005.50;;;11.48;100.00
7376;BME280;3728;42.266;24.944;2022-11-12T00:19:39;101006.03;;;11.45;100.00
7376;BME280;3728;42.266;24.944;2022-11-12T00:22:25;101002.91;;;11.33;100.00
7376;BME280;3728;42.266;24.944;2022-11-12T00:25:11;100999.94;;;11.60;100.00
7376;BME280;3728;42.266;24.944;2022-11-12T00:28:05;101003.94;;;11.42;100.00
7376;BME280;3728;42.266;24.944;2022-11-12T00:30:53;101010.56;;;11.20;100.00
7376;BME280;3728;42.266;24.944;2022-11-12T00:33:41;100999.28;;;11.19;100.00
7376;BME280;3728;42.266;24.944;2022-11-12T00:36:27;100997.91;;;11.42;100.00
7376;BME280;3728;42.266;24.944;2022-11-12T00:39:13;100992.91;;;11.45;100.00
7376;BME280;3728;42.266;24.944;2022-11-12T00:42:00;100994.78;;;11.40;100.00
7376;BME280;3728;42.266;24.944;2022-11-12T00:44:46;100996.03;;;11.47;100.00
7376;BME280;3728;42.266;24.944;2022-11-12T00:47:34;100995.22;;;11.57;100.00
7376;BME280;3728;42.266;24.944;2022-11-12T00:50:19;100995.81;;;11.44;100.00
7376;BME280;3728;42.266;24.944;2022-11-12T00:53:07;100992.19;;;11.25;100.00
7376;BME280;3728;42.266;24.944;2022-11-12T00:55:58;100980.88;;;11.34;100.00
7376;BME280;3728;42.266;24.944;2022-11-12T00:58:46;100991.94;;;11.21;100.00
7376;BME280;3728;42.266;24.944;2022-11-12T01:01:32;100984.06;;;11.21;100.00
7376;BME280;3728;42.266;24.944;2022-11-12T01:04:17;100988.03;;;11.19;100.00
7376;BME280;3728;42.266;24.944;2022-11-12T01:07:04;100981.22;;;11.18;100.00
7376;BME280;3728;42.266;24.944;2022-11-12T01:09:50;100984.09;;;11.16;100.00
7376;BME280;3728;42.266;24.944;2022-11-12T01:12:36;100979.59;;;11.27;100.00
7376;BME280;3728;42.266;24.944;2022-11-12T01:15:22;100975.13;;;11.37;100.00
7376;BME280;3728;42.266;24.944;2022-11-12T01:18:08;100977.75;;;11.37;100.00
7376;BME280;3728;42.266;24.944;2022-11-12T01:20:59;100975.13;;;11.37;100.00
7376;BME280;3728;42.266;24.944;2022-11-12T01:23:48;100970.13;;;11.36;100.00
7376;BME280;3728;42.266;24.944;2022-11-12T01:26:35;100969.88;;;11.32;100.00
7376;BME280;3728;42.266;24.944;2022-11-12T01:29:22;100960.44;;;11.31;100.00
7376;BME280;3728;42.266;24.944;2022-11-12T01:32:07;100959.16;;;11.24;100.00
7376;BME280;3728;42.266;24.944;2022-11-12T01:34:53;100957.78;;;11.36;100.00
7376;BME280;3728;42.266;24.944;2022-11-12T01:37:40;100948.94;;;11.17;100.00
7376;BME280;3728;42.266;24.944;2022-11-12T01:40:26;100948.19;;;11.12;100.00
7376;BME280;3728;42.266;24.944;2022-11-12T01:43:13;100948.19;;;11.12;100.00
7376;BME280;3728;42.266;24.944;2022-11-12T01:46:01;100948.47;;;11.00;100.00
7376;BME280;3728;42.266;24.944;2022-11-12T01:48:55;100943.25;;;11.00;100.00
7376;BME280;3728;42.266;24.944;2022-11-12T01:51:47;100949.28;;;10.95;100.00
7376;BME280;3728;42.266;24.944;2022-11-12T01:54:35;100946.34;;;11.12;100.00
7376;BME280;3728;42.266;24.944;2022-11-12T01:57:32;100952.16;;;11.09;100.00
7376;BME280;3728;42.266;24.944;2022-11-12T02:00:40;100950.31;;;11.05;100.00
7376;BME280;3728;42.266;24.944;2022-11-12T02:03:27;100961.31;;;11.07;100.00
7376;BME280;3728;42.266;24.944;2022-11-12T02:06:13;100962.34;;;11.11;100.00
7376;BME280;3728;42.266;24.944;2022-11-12T02:09:01;100968.91;;;11.13;100.00
7376;BME280;3728;42.266;24.944;2022-11-12T02:11:47;100957.09;;;11.16;100.00
7376;BME280;3728;42.266;24.944;2022-11-12T02:14:34;100963.09;;;11.21;100.00
7376;BME280;3728;42.266;24.944;2022-11-12T02:17:19;100964.69;;;11.17;100.00
7376;BME280;3728;42.266;24.944;2022-11-12T02:20:10;100960.97;;;11.28;100.00
7376;BME280;3728;42.266;24.944;2022-11-12T02:22:57;100959.38;;;11.37;100.00
7376;BME280;3728;42.266;24.944;2022-11-12T02:25:43;100966.41;;;11.47;100.00
7376;BME280;3728;42.266;24.944;2022-11-12T02:28:30;100949.91;;;11.41;100.00
7376;BME280;3728;42.266;24.944;2022-11-12T02:31:17;100952.03;;;11.34;100.00
7376;BME280;3728;42.266;24.944;2022-11-12T02:34:03;100959.13;;;11.34;100.00
7376;BME280;3728;42.266;24.944;2022-11-12T02:36:53;100952.84;;;11.30;100.00
7376;BME280;3728;42.266;24.944;2022-11-12T02:39:39;100954.16;;;11.27;100.00
7376;BME280;3728;42.266;24.944;2022-11-12T02:42:24;100958.91;;;11.25;100.00
7376;BME280;3728;42.266;24.944;2022-11-12T02:45:10;100961.03;;;11.18;100.00
7376;BME280;3728;42.266;24.944;2022-11-12T02:47:56;100955.22;;;11.21;100.00
7376;BME280;3728;42.266;24.944;2022-11-12T02:50:43;100945.84;;;11.10;100.00
7376;BME280;3728;42.266;24.944;2022-11-12T02:53:29;100948.97;;;11.12;100.00
7376;BME280;3728;42.266;24.944;2022-11-12T02:56:16;100959.97;;;11.14;100.00
7376;BME280;3728;42.266;24.944;2022-11-12T02:59:02;100960.72;;;11.25;100.00
7376;BME280;3728;42.266;24.944;2022-11-12T03:01:49;100958.06;;;11.40;100.00
7376;BME280;3728;42.266;24.944;2022-11-12T03:04:35;100961.75;;;11.29;100.00
7376;BME280;3728;42.266;24.944;2022-11-12T03:07:21;100961.50;;;11.30;100.00
7376;BME280;3728;42.266;24.944;2022-11-12T03:10:07;100955.69;;;11.38;100.00
7376;BME280;3728;42.266;24.944;2022-11-12T03:12:55;100960.69;;;11.35;100.00
7376;BME280;3728;42.266;24.944;2022-11-12T03:15:43;100957.66;;;11.61;100.00
7376;BME280;3728;42.266;24.944;2022-11-12T03:18:29;100956.09;;;11.60;100.00
7376;BME280;3728;42.266;24.944;2022-11-12T03:21:15;100959.88;;;11.39;100.00
7376;BME280;3728;42.266;24.944;2022-11-12T03:24:01;100960.72;;;11.30;100.00
7376;BME280;3728;42.266;24.944;2022-11-12T03:26:47;100968.84;;;11.28;100.00
7376;BME280;3728;42.266;24.944;2022-11-12T03:29:33;100963.56;;;11.33;100.00
7376;BME280;3728;42.266;24.944;2022-11-12T03:32:19;100972.75;;;11.31;100.00
7376;BME280;3728;42.266;24.944;2022-11-12T03:35:06;100966.22;;;11.28;100.00
7376;BME280;3728;42.266;24.944;2022-11-12T03:37:52;100970.19;;;11.21;100.00
7376;BME280;3728;42.266;24.944;2022-11-12T03:40:39;100970.97;;;11.21;100.00
7376;BME280;3728;42.266;24.944;2022-11-12T03:43:25;100975.69;;;11.14;100.00
7376;BME280;3728;42.266;24.944;2022-11-12T03:46:11;100978.38;;;11.09;100.00
7376;BME280;3728;42.266;24.944;2022-11-12T03:48:57;100974.44;;;11.07;100.00
7376;BME280;3728;42.266;24.944;2022-11-12T03:51:43;100977.03;;;11.12;100.00
7376;BME280;3728;42.266;24.944;2022-11-12T03:54:31;100975.19;;;11.07;100.00
7376;BME280;3728;42.266;24.944;2022-11-12T03:57:17;100983.31;;;11.16;100.00
7376;BME280;3728;42.266;24.944;2022-11-12T04:00:04;100978.88;;;11.16;100.00
7376;BME280;3728;42.266;24.944;2022-11-12T04:02:52;100993.25;;;11.24;100.00
7376;BME280;3728;42.266;24.944;2022-11-12T04:05:38;100988.78;;;11.24;100.00
7376;BME280;3728;42.266;24.944;2022-11-12T04:08:45;100978.28;;;11.29;100.00
7376;BME280;3728;42.266;24.944;2022-11-12T04:11:31;100988.69;;;11.49;100.00
7376;BME280;3728;42.266;24.944;2022-11-12T04:14:17;100991.34;;;11.44;100.00
7376;BME280;3728;42.266;24.944;2022-11-12T04:17:03;100992.41;;;11.33;100.00
7376;BME280;3728;42.266;24.944;2022-11-12T04:20:08;101000.59;;;11.22;100.00
7376;BME280;3728;42.266;24.944;2022-11-12T04:23:13;100996.69;;;11.14;100.00
7376;BME280;3728;42.266;24.944;2022-11-12T04:25:59;101003.00;;;11.13;100.00
7376;BME280;3728;42.266;24.944;2022-11-12T04:29:04;100996.44;;;11.06;100.00
7376;BME280;3728;42.266;24.944;2022-11-12T04:32:08;100994.59;;;11.16;100.00
7376;BME280;3728;42.266;24.944;2022-11-12T04:34:55;100997.75;;;11.08;100.00
7376;BME280;3728;42.266;24.944;2022-11-12T04:37:41;100993.03;;;11.05;100.00
7376;BME280;3728;42.266;24.944;2022-11-12T04:40:30;101004.03;;;11.07;100.00
7376;BME280;3728;42.266;24.944;2022-11-12T04:43:35;101000.13;;;11.05;100.00
7376;BME280;3728;42.266;24.944;2022-11-12T04:46:40;100999.34;;;11.09;100.00
7376;BME280;3728;42.266;24.944;2022-11-12T04:49:27;100997.25;;;11.06;100.00
7376;BME280;3728;42.266;24.944;2022-11-12T04:52:13;100999.34;;;11.04;100.00
7376;BME280;3728;42.266;24.944;2022-11-12T04:54:59;101000.66;;;11.07;100.00
7376;BME280;3728;42.266;24.944;2022-11-12T04:57:45;101005.66;;;10.93;100.00
7376;BME280;3728;42.266;24.944;2022-11-12T05:00:31;101010.63;;;10.94;100.00
7376;BME280;3728;42.266;24.944;2022-11-12T05:03:18;101006.94;;;11.00;100.00
7376;BME280;3728;42.266;24.944;2022-11-12T05:06:05;101015.31;;;11.08;100.00
7376;BME280;3728;42.266;24.944;2022-11-12T05:09:10;101015.03;;;11.14;100.00
7376;BME280;3728;42.266;24.944;2022-11-12T05:11:56;101011.91;;;11.07;100.00
7376;BME280;3728;42.266;24.944;2022-11-12T05:14:42;101018.72;;;11.08;100.00
7376;BME280;3728;42.266;24.944;2022-11-12T05:17:28;101017.41;;;11.11;100.00
7376;BME280;3728;42.266;24.944;2022-11-12T05:20:15;101018.44;;;11.10;100.00
7376;BME280;3728;42.266;24.944;2022-11-12T05:23:01;101014.00;;;11.10;100.00
7376;BME280;3728;42.266;24.944;2022-11-12T05:25:51;101021.13;;;10.99;100.00
7376;BME280;3728;42.266;24.944;2022-11-12T05:28:37;101022.69;;;11.00;100.00
7376;BME280;3728;42.266;24.944;2022-11-12T05:31:24;101036.00;;;11.19;100.00
7376;BME280;3728;42.266;24.944;2022-11-12T05:34:10;101041.81;;;11.16;100.00
7376;BME280;3728;42.266;24.944;2022-11-12T05:36:57;101036.00;;;11.19;100.00
7376;BME280;3728;42.266;24.944;2022-11-12T05:39:44;101043.13;;;11.14;100.00
7376;BME280;3728;42.266;24.944;2022-11-12T05:42:30;101053.84;;;11.12;100.00
7376;BME280;3728;42.266;24.944;2022-11-12T05:45:16;101063.81;;;11.20;100.00
7376;BME280;3728;42.266;24.944;2022-11-12T05:48:02;101064.06;;;11.24;100.00
7376;BME280;3728;42.266;24.944;2022-11-12T05:50:51;101072.47;;;11.26;100.00
7376;BME280;3728;42.266;24.944;2022-11-12T05:53:58;101073.22;;;11.21;100.00
7376;BME280;3728;42.266;24.944;2022-11-12T05:56:44;101076.13;;;11.30;100.00
7376;BME280;3728;42.266;24.944;2022-11-12T05:59:31;101075.84;;;11.31;100.00
7376;BME280;3728;42.266;24.944;2022-11-12T06:02:17;101085.00;;;11.44;100.00
7376;BME280;3728;42.266;24.944;2022-11-12T06:05:03;101081.59;;;11.43;100.00
7376;BME280;3728;42.266;24.944;2022-11-12T06:07:49;101082.13;;;11.35;100.00
7376;BME280;3728;42.266;24.944;2022-11-12T06:10:35;101087.91;;;11.37;100.00
7376;BME280;3728;42.266;24.944;2022-11-12T06:13:23;101091.56;;;11.46;100.00
7376;BME280;3728;42.266;24.944;2022-11-12T06:16:09;101098.38;;;11.42;100.00
7376;BME280;3728;42.266;24.944;2022-11-12T06:18:55;101105.47;;;11.37;100.00
7376;BME280;3728;42.266;24.944;2022-11-12T06:21:41;101114.09;;;11.42;100.00
7376;BME280;3728;42.266;24.944;2022-11-12T06:24:28;101114.91;;;11.38;100.00
7376;BME280;3728;42.266;24.944;2022-11-12T06:27:19;101117.78;;;11.41;100.00
7376;BME280;3728;42.266;24.944;2022-11-12T06:30:06;101124.88;;;11.46;100.00
7376;BME280;3728;42.266;24.944;2022-11-12T06:32:53;101124.06;;;11.55;100.00
7376;BME280;3728;42.266;24.944;2022-11-12T06:35:39;101117.47;;;11.63;100.00
7376;BME280;3728;42.266;24.944;2022-11-12T06:38:33;101130.69;;;11.33;100.00
7376;BME280;3728;42.266;24.944;2022-11-12T06:41:20;101122.81;;;11.28;100.00
7376;BME280;3728;42.266;24.944;2022-11-12T06:44:06;101131.44;;;11.38;100.00
7376;BME280;3728;42.266;24.944;2022-11-12T06:46:52;101131.94;;;11.45;100.00
7376;BME280;3728;42.266;24.944;2022-11-12T06:49:38;101123.06;;;11.31;100.00
7376;BME280;3728;42.266;24.944;2022-11-12T06:52:24;101121.97;;;11.68;100.00
7376;BME280;3728;42.266;24.944;2022-11-12T06:55:10;101117.72;;;11.66;100.00
7376;BME280;3728;42.266;24.944;2022-11-12T06:57:56;101121.72;;;11.44;100.00
7376;BME280;3728;42.266;24.944;2022-11-12T07:00:43;101124.13;;;11.15;100.00
7376;BME280;3728;42.266;24.944;2022-11-12T07:03:29;101125.94;;;11.25;100.00
7376;BME280;3728;42.266;24.944;2022-11-12T07:06:15;101125.31;;;11.83;100.00
7376;BME280;3728;42.266;24.944;2022-11-12T07:09:04;101127.25;;;11.32;100.00
7376;BME280;3728;42.266;24.944;2022-11-12T07:11:50;101128.53;;;11.45;100.00
7376;BME280;3728;42.266;24.944;2022-11-12T07:14:36;101124.81;;;11.76;100.00
7376;BME280;3728;42.266;24.944;2022-11-12T07:17:22;101128.78;;;11.58;100.00
7376;BME280;3728;42.266;24.944;2022-11-12T07:20:10;101134.31;;;11.42;100.00
7376;BME280;3728;42.266;24.944;2022-11-12T07:22:59;101127.25;;;11.37;100.00
7376;BME280;3728;42.266;24.944;2022-11-12T07:25:45;101126.22;;;11.23;100.00
7376;BME280;3728;42.266;24.944;2022-11-12T07:28:31;101121.66;;;11.79;100.00
7376;BME280;3728;42.266;24.944;2022-11-12T07:31:19;101124.84;;;11.56;100.00
7376;BME280;3728;42.266;24.944;2022-11-12T07:34:05;101120.91;;;11.58;100.00
7376;BME280;3728;42.266;24.944;2022-11-12T07:36:51;101127.63;;;11.95;100.00
7376;BME280;3728;42.266;24.944;2022-11-12T07:39:36;101121.88;;;11.88;100.00
7376;BME280;3728;42.266;24.944;2022-11-12T07:42:23;101127.47;;;11.61;100.00
7376;BME280;3728;42.266;24.944;2022-11-12T07:45:10;101134.84;;;11.49;100.00
7376;BME280;3728;42.266;24.944;2022-11-12T07:47:58;101134.41;;;12.06;100.00
7376;BME280;3728;42.266;24.944;2022-11-12T07:50:44;101131.91;;;11.65;100.00
7376;BME280;3728;42.266;24.944;2022-11-12T07:53:30;101132.72;;;11.56;100.00
7376;BME280;3728;42.266;24.944;2022-11-12T07:56:20;101135.59;;;11.49;100.00
7376;BME280;3728;42.266;24.944;2022-11-12T07:59:07;101129.09;;;11.22;100.00
7376;BME280;3728;42.266;24.944;2022-11-12T08:01:53;101129.91;;;10.97;100.00
7376;BME280;3728;42.266;24.944;2022-11-12T08:04:39;101131.47;;;10.73;100.00
7376;BME280;3728;42.266;24.944;2022-11-12T08:07:25;101120.47;;;11.11;100.00
7376;BME280;3728;42.266;24.944;2022-11-12T08:10:11;101120.19;;;11.02;100.00
7376;BME280;3728;42.266;24.944;2022-11-12T08:12:58;101116.78;;;10.82;100.00
7376;BME280;3728;42.266;24.944;2022-11-12T08:15:44;101129.13;;;10.91;100.00
7376;BME280;3728;42.266;24.944;2022-11-12T08:18:36;101128.34;;;11.11;100.00
7376;BME280;3728;42.266;24.944;2022-11-12T08:21:22;101130.13;;;11.36;100.00
7376;BME280;3728;42.266;24.944;2022-11-12T08:24:09;101135.66;;;11.24;100.00
7376;BME280;3728;42.266;24.944;2022-11-12T08:26:56;101137.41;;;11.59;100.00
7376;BME280;3728;42.266;24.944;2022-11-12T08:29:43;101141.88;;;11.74;100.00
7376;BME280;3728;42.266;24.944;2022-11-12T08:32:29;101137.63;;;11.88;100.00
7376;BME280;3728;42.266;24.944;2022-11-12T08:35:15;101151.06;;;11.76;100.00
7376;BME280;3728;42.266;24.944;2022-11-12T08:38:03;101159.69;;;11.87;100.00
7376;BME280;3728;42.266;24.944;2022-11-12T08:41:19;101160.78;;;11.65;100.00
7376;BME280;3728;42.266;24.944;2022-11-12T08:44:08;101157.66;;;11.43;100.00
7376;BME280;3728;42.266;24.944;2022-11-12T08:46:54;101162.63;;;11.45;100.00
7376;BME280;3728;42.266;24.944;2022-11-12T08:49:40;101165.53;;;11.58;100.00
7376;BME280;3728;42.266;24.944;2022-11-12T08:52:31;101162.91;;;11.33;100.00
7376;BME280;3728;42.266;24.944;2022-11-12T08:55:19;101172.59;;;11.53;100.00
7376;BME280;3728;42.266;24.944;2022-11-12T08:58:05;101180.25;;;11.34;100.00
7376;BME280;3728;42.266;24.944;2022-11-12T09:00:52;101168.69;;;11.40;100.00
7376;BME280;3728;42.266;24.944;2022-11-12T09:03:38;101159.47;;;11.53;100.00
7376;BME280;3728;42.266;24.944;2022-11-12T09:06:24;101157.66;;;11.48;100.00
7376;BME280;3728;42.266;24.944;2022-11-12T09:09:11;101160.31;;;11.23;100.00
7376;BME280;3728;42.266;24.944;2022-11-12T09:11:57;101144.59;;;11.18;100.00
7376;BME280;3728;42.266;24.944;2022-11-12T09:14:50;101144.50;;;11.68;100.00
7376;BME280;3728;42.266;24.944;2022-11-12T09:17:54;101146.41;;;11.33;100.00
7376;BME280;3728;42.266;24.944;2022-11-12T09:20:43;101150.03;;;11.52;100.00
7376;BME280;3728;42.266;24.944;2022-11-12T09:23:29;101145.81;;;11.71;100.00
7376;BME280;3728;42.266;24.944;2022-11-12T09:26:17;101151.09;;;11.61;100.00
7376;BME280;3728;42.266;24.944;2022-11-12T09:29:04;101145.34;;;11.49;100.00
7376;BME280;3728;42.266;24.944;2022-11-12T09:31:50;101151.91;;;11.36;100.00
7376;BME280;3728;42.266;24.944;2022-11-12T09:34:38;101163.94;;;11.42;100.00
7376;BME280;3728;42.266;24.944;2022-11-12T09:37:24;101164.16;;;11.86;100.00
7376;BME280;3728;42.266;24.944;2022-11-12T09:40:15;101152.59;;;11.87;100.00
7376;BME280;3728;42.266;24.944;2022-11-12T09:43:10;101141.88;;;11.68;100.00
7376;BME280;3728;42.266;24.944;2022-11-12T09:49:54;101146.59;;;11.56;100.00
7376;BME280;3728;42.266;24.944;2022-11-12T09:53:08;101142.13;;;11.67;100.00
7376;BME280;3728;42.266;24.944;2022-11-12T09:56:09;101151.09;;;11.36;100.00
7376;BME280;3728;42.266;24.944;2022-11-12T09:59:18;101156.00;;;11.93;100.00
7376;BME280;3728;42.266;24.944;2022-11-12T10:02:51;101148.75;;;11.44;100.00
7376;BME280;3728;42.266;24.944;2022-11-12T10:05:48;101155.53;;;11.55;100.00
7376;BME280;3728;42.266;24.944;2022-11-12T10:08:51;101138.28;;;11.14;100.00
7376;BME280;3728;42.266;24.944;2022-11-12T10:12:19;101131.19;;;11.10;100.00
7376;BME280;3728;42.266;24.944;2022-11-12T10:15:36;101135.41;;;10.90;100.00
7376;BME280;3728;42.266;24.944;2022-11-12T10:25:17;101149.50;;;11.75;100.00
7376;BME280;3728;42.266;24.944;2022-11-12T10:31:37;101156.06;;;11.62;100.00
7376;BME280;3728;42.266;24.944;2022-11-12T10:34:23;101158.72;;;11.37;100.00
7376;BME280;3728;42.266;24.944;2022-11-12T10:37:50;101165.28;;;11.35;100.00
7376;BME280;3728;42.266;24.944;2022-11-12T10:40:41;101160.78;;;11.60;100.00
7376;BME280;3728;42.266;24.944;2022-11-12T10:43:28;101147.16;;;11.43;100.00
7376;BME280;3728;42.266;24.944;2022-11-12T10:46:29;101159.47;;;11.63;100.00
7376;BME280;3728;42.266;24.944;2022-11-12T10:49:24;101150.00;;;11.62;100.00
7376;BME280;3728;42.266;24.944;2022-11-12T10:52:22;101149.56;;;11.20;100.00
7376;BME280;3728;42.266;24.944;2022-11-12T10:55:23;101147.44;;;10.76;100.00
7376;BME280;3728;42.266;24.944;2022-11-12T10:58:20;101160.84;;;10.85;100.00
7376;BME280;3728;42.266;24.944;2022-11-12T11:01:15;101152.69;;;11.22;100.00
7376;BME280;3728;42.266;24.944;2022-11-12T11:04:02;101152.97;;;11.10;100.00
7376;BME280;3728;42.266;24.944;2022-11-12T11:06:59;101154.00;;;11.14;100.00
7376;BME280;3728;42.266;24.944;2022-11-12T11:10:01;101149.53;;;10.69;100.00
7376;BME280;3728;42.266;24.944;2022-11-12T11:12:47;101145.09;;;10.60;100.00
7376;BME280;3728;42.266;24.944;2022-11-12T11:15:34;101143.00;;;10.67;100.00
7376;BME280;3728;42.266;24.944;2022-11-12T11:18:23;101162.16;;;11.33;100.00
7376;BME280;3728;42.266;24.944;2022-11-12T11:24:34;101149.81;;;11.03;100.00
7376;BME280;3728;42.266;24.944;2022-11-12T11:31:12;101150.63;;;10.78;100.00
7376;BME280;3728;42.266;24.944;2022-11-12T11:34:41;101146.91;;;10.69;100.00
7376;BME280;3728;42.266;24.944;2022-11-12T11:44:36;101154.00;;;10.84;100.00
7376;BME280;3728;42.266;24.944;2022-11-12T11:48:24;101141.94;;;10.63;100.00
7376;BME280;3728;42.266;24.944;2022-11-12T11:51:37;101142.19;;;10.51;100.00
7376;BME280;3728;42.266;24.944;2022-11-12T12:00:55;101131.75;;;10.71;100.00
7376;BME280;3728;42.266;24.944;2022-11-12T12:07:20;101129.09;;;10.56;100.00
7376;BME280;3728;42.266;24.944;2022-11-12T12:10:27;101127.53;;;10.90;100.00
7376;BME280;3728;42.266;24.944;2022-11-12T12:17:56;101122.56;;;10.74;100.00
7376;BME280;3728;42.266;24.944;2022-11-12T12:21:16;101121.50;;;10.80;100.00
7376;BME280;3728;42.266;24.944;2022-11-12T12:24:21;101111.28;;;10.83;100.00
7376;BME280;3728;42.266;24.944;2022-11-12T12:27:41;101116.53;;;11.19;100.00
7376;BME280;3728;42.266;24.944;2022-11-12T12:30:54;101116.53;;;10.93;100.00
7376;BME280;3728;42.266;24.944;2022-11-12T12:34:28;101110.25;;;10.64;100.00
7376;BME280;3728;42.266;24.944;2022-11-12T12:37:25;101118.91;;;10.95;100.00
7376;BME280;3728;42.266;24.944;2022-11-12T12:40:28;101112.59;;;10.71;100.00
7376;BME280;3728;42.266;24.944;2022-11-12T12:46:21;101117.06;;;10.80;100.00
7376;BME280;3728;42.266;24.944;2022-11-12T12:49:15;101117.84;;;10.96;100.00
7376;BME280;3728;42.266;24.944;2022-11-12T12:52:05;101114.44;;;10.95;100.00
7376;BME280;3728;42.266;24.944;2022-11-12T12:54:54;101108.41;;;11.10;100.00
7376;BME280;3728;42.266;24.944;2022-11-12T12:57:42;101110.50;;;10.83;100.00
7376;BME280;3728;42.266;24.944;2022-11-12T13:00:36;101104.19;;;11.19;100.00
7376;BME280;3728;42.266;24.944;2022-11-12T13:06:51;101094.25;;;10.96;100.00
7376;BME280;3728;42.266;24.944;2022-11-12T13:09:38;101076.41;;;10.93;100.00
7376;BME280;3728;42.266;24.944;2022-11-12T13:13:00;101083.25;;;10.79;100.00
7376;BME280;3728;42.266;24.944;2022-11-12T13:15:54;101079.31;;;10.91;100.00
7376;BME280;3728;42.266;24.944;2022-11-12T13:21:28;101077.72;;;10.90;100.00
7376;BME280;3728;42.266;24.944;2022-11-12T13:24:14;101080.63;;;10.79;100.00
7376;BME280;3728;42.266;24.944;2022-11-12T13:27:00;101075.34;;;11.14;100.00
7376;BME280;3728;42.266;24.944;2022-11-12T13:29:46;101073.00;;;11.13;100.00
7376;BME280;3728;42.266;24.944;2022-11-12T13:32:58;101067.25;;;11.00;100.00
7376;BME280;3728;42.266;24.944;2022-11-12T13:35:43;101059.94;;;10.82;100.00
7376;BME280;3728;42.266;24.944;2022-11-12T13:38:35;101046.78;;;11.13;100.00
7376;BME280;3728;42.266;24.944;2022-11-12T13:41:22;101066.38;;;11.35;100.00
7376;BME280;3728;42.266;24.944;2022-11-12T13:44:30;101075.09;;;11.11;100.00
7376;BME280;3728;42.266;24.944;2022-11-12T13:47:19;101082.69;;;11.07;100.00
7376;BME280;3728;42.266;24.944;2022-11-12T13:50:12;101096.31;;;11.14;100.00
7376;BME280;3728;42.266;24.944;2022-11-12T13:53:07;101094.00;;;10.92;100.00
7376;BME280;3728;42.266;24.944;2022-11-12T13:55:54;101084.81;;;11.00;100.00
7376;BME280;3728;42.266;24.944;2022-11-12T13:58:40;101096.81;;;11.46;100.00
7376;BME280;3728;42.266;24.944;2022-11-12T14:01:28;101096.81;;;11.46;100.00
7376;BME280;3728;42.266;24.944;2022-11-12T14:04:17;101090.03;;;11.30;100.00
7376;BME280;3728;42.266;24.944;2022-11-12T14:17:45;101094.78;;;10.73;100.00
7376;BME280;3728;42.266;24.944;2022-11-12T14:20:40;101105.28;;;10.78;100.00
7376;BME280;3728;42.266;24.944;2022-11-12T14:23:27;101106.84;;;10.94;100.00
7376;BME280;3728;42.266;24.944;2022-11-12T14:29:19;101099.22;;;10.97;100.00
7376;BME280;3728;42.266;24.944;2022-11-12T14:32:07;101106.31;;;10.97;100.00
7376;BME280;3728;42.266;24.944;2022-11-12T14:34:53;101110.50;;;11.13;100.00
7376;BME280;3728;42.266;24.944;2022-11-12T14:37:45;101109.19;;;10.75;100.00
7376;BME280;3728;42.266;24.944;2022-11-12T14:41:15;101113.66;;;10.85;100.00
7376;BME280;3728;42.266;24.944;2022-11-12T14:44:05;101112.34;;;10.87;100.00
7376;BME280;3728;42.266;24.944;2022-11-12T14:46:58;101124.38;;;10.83;100.00
7376;BME280;3728;42.266;24.944;2022-11-12T14:49:46;101125.19;;;10.69;100.00
7376;BME280;3728;42.266;24.944;2022-11-12T14:52:40;101119.41;;;10.72;100.00
7376;BME280;3728;42.266;24.944;2022-11-12T14:55:31;101127.78;;;10.79;100.00
7376;BME280;3728;42.266;24.944;2022-11-12T14:58:20;101123.63;;;10.88;100.00
7376;BME280;3728;42.266;24.944;2022-11-12T15:01:25;101129.63;;;10.73;100.00
7376;BME280;3728;42.266;24.944;2022-11-12T15:04:53;101129.88;;;10.72;100.00
7376;BME280;3728;42.266;24.944;2022-11-12T15:08:08;101133.31;;;10.77;100.00
7376;BME280;3728;42.266;24.944;2022-11-12T15:11:12;101135.94;;;10.82;100.00
7376;BME280;3728;42.266;24.944;2022-11-12T15:14:12;101144.59;;;11.08;100.00
7376;BME280;3728;42.266;24.944;2022-11-12T15:17:06;101141.94;;;10.93;100.00
7376;BME280;3728;42.266;24.944;2022-11-12T15:20:15;101143.00;;;10.87;100.00
7376;BME280;3728;42.266;24.944;2022-11-12T15:23:02;101150.59;;;10.83;100.00
7376;BME280;3728;42.266;24.944;2022-11-12T15:26:00;101144.06;;;10.81;100.00
7376;BME280;3728;42.266;24.944;2022-11-12T15:29:00;101147.97;;;10.83;100.00
7376;BME280;3728;42.266;24.944;2022-11-12T15:35:40;101145.88;;;10.75;100.00
7376;BME280;3728;42.266;24.944;2022-11-12T15:38:33;101150.34;;;10.60;100.00
7376;BME280;3728;42.266;24.944;2022-11-12T15:41:26;101156.84;;;10.62;100.00
7376;BME280;3728;42.266;24.944;2022-11-12T15:44:13;101152.69;;;10.71;100.00
7376;BME280;3728;42.266;24.944;2022-11-12T15:47:01;101149.53;;;10.64;100.00
7376;BME280;3728;42.266;24.944;2022-11-12T15:49:55;101139.84;;;10.65;100.00
7376;BME280;3728;42.266;24.944;2022-11-12T15:52:44;101146.69;;;10.76;100.00
7376;BME280;3728;42.266;24.944;2022-11-12T15:55:31;101148.50;;;10.70;100.00
7376;BME280;3728;42.266;24.944;2022-11-12T15:58:27;101157.41;;;10.59;100.00
7376;BME280;3728;42.266;24.944;2022-11-12T16:01:16;101151.91;;;10.76;100.00
7376;BME280;3728;42.266;24.944;2022-11-12T16:04:02;101162.66;;;10.64;100.00